sensor_id;sensor_type;location;lat;lon;timestamp;P1;durP1;ratioP1;P2;durP2;ratioP2
17892;SDS011;9072;51.918;4.380;2023-09-30T00:01:08;17.43;;;9.13;;
17892;SDS011;9072;51.918;4.380;2023-09-30T00:03:36;15.07;;;8.73;;
17892;SDS011;9072;51.918;4.380;2023-09-30T00:06:04;19.80;;;8.83;;
17892;SDS011;9072;51.918;4.380;2023-09-30T00:08:32;16.03;;;8.97;;
17892;SDS011;9072;51.918;4.380;2023-09-30T00:10:59;15.47;;;9.00;;
17892;SDS011;9072;51.918;4.380;2023-09-30T00:13:28;13.93;;;8.53;;
17892;SDS011;9072;51.918;4.380;2023-09-30T00:15:57;19.07;;;9.40;;
17892;SDS011;9072;51.918;4.380;2023-09-30T00:18:24;12.77;;;9.03;;
17892;SDS011;9072;51.918;4.380;2023-09-30T00:20:52;14.83;;;9.03;;
17892;SDS011;9072;51.918;4.380;2023-09-30T00:23:20;19.47;;;9.00;;
17892;SDS011;9072;51.918;4.380;2023-09-30T00:25:49;17.90;;;9.70;;
17892;SDS011;9072;51.918;4.380;2023-09-30T00:28:16;18.83;;;9.37;;
17892;SDS011;9072;51.918;4.380;2023-09-30T00:30:45;14.93;;;9.37;;
17892;SDS011;9072;51.918;4.380;2023-09-30T00:33:13;15.13;;;9.53;;
17892;SDS011;9072;51.918;4.380;2023-09-30T00:35:40;13.63;;;8.97;;
17892;SDS011;9072;51.918;4.380;2023-09-30T00:38:11;18.03;;;9.77;;
17892;SDS011;9072;51.918;4.380;2023-09-30T00:40:39;16.73;;;9.70;;
17892;SDS011;9072;51.918;4.380;2023-09-30T00:43:17;16.70;;;10.63;;
17892;SDS011;9072;51.918;4.380;2023-09-30T00:45:47;16.00;;;10.43;;
17892;SDS011;9072;51.918;4.380;2023-09-30T00:48:16;15.83;;;11.17;;
17892;SDS011;9072;51.918;4.380;2023-09-30T00:50:44;17.77;;;11.30;;
17892;SDS011;9072;51.918;4.380;2023-09-30T00:53:12;23.03;;;12.47;;
17892;SDS011;9072;51.918;4.380;2023-09-30T00:55:40;19.80;;;12.53;;
17892;SDS011;9072;51.918;4.380;2023-09-30T00:58:07;18.97;;;12.17;;
17892;SDS011;9072;51.918;4.380;2023-09-30T01:00:35;19.17;;;12.97;;
17892;SDS011;9072;51.918;4.380;2023-09-30T01:03:05;23.13;;;13.77;;
17892;SDS011;9072;51.918;4.380;2023-09-30T01:05:34;20.57;;;13.93;;
17892;SDS011;9072;51.918;4.380;2023-09-30T01:08:02;19.53;;;12.83;;
17892;SDS011;9072;51.918;4.380;2023-09-30T01:10:29;19.33;;;12.80;;
17892;SDS011;9072;51.918;4.380;2023-09-30T01:12:57;21.87;;;13.03;;
17892;SDS011;9072;51.918;4.380;2023-09-30T01:15:25;21.63;;;13.13;;
17892;SDS011;9072;51.918;4.380;2023-09-30T01:17:55;19.40;;;13.07;;
17892;SDS011;9072;51.918;4.380;2023-09-30T01:20:24;17.67;;;12.40;;
17892;SDS011;9072;51.918;4.380;2023-09-30T01:22:54;18.20;;;12.67;;
17892;SDS011;9072;51.918;4.380;2023-09-30T01:25:23;19.47;;;12.73;;
17892;SDS011;9072;51.918;4.380;2023-09-30T01:27:51;18.33;;;12.77;;
17892;SDS011;9072;51.918;4.380;2023-09-30T01:30:19;19.23;;;12.90;;
17892;SDS011;9072;51.918;4.380;2023-09-30T01:32:47;24.03;;;13.70;;
17892;SDS011;9072;51.918;4.380;2023-09-30T01:35:15;22.57;;;13.20;;
17892;SDS011;9072;51.918;4.380;2023-09-30T01:37:43;18.27;;;13.07;;
17892;SDS011;9072;51.918;4.380;2023-09-30T01:40:12;19.23;;;12.87;;
17892;SDS011;9072;51.918;4.380;2023-09-30T01:42:40;20.67;;;13.90;;
17892;SDS011;9072;51.918;4.380;2023-09-30T01:45:08;18.03;;;13.07;;
17892;SDS011;9072;51.918;4.380;2023-09-30T01:47:36;21.40;;;14.73;;
17892;SDS011;9072;51.918;4.380;2023-09-30T01:50:07;20.83;;;14.33;;
17892;SDS011;9072;51.918;4.380;2023-09-30T01:52:35;22.90;;;16.33;;
17892;SDS011;9072;51.918;4.380;2023-09-30T01:55:06;22.97;;;16.20;;
17892;SDS011;9072;51.918;4.380;2023-09-30T01:57:35;23.50;;;18.03;;
17892;SDS011;9072;51.918;4.380;2023-09-30T02:00:03;22.00;;;18.37;;
17892;SDS011;9072;51.918;4.380;2023-09-30T02:02:34;27.03;;;19.57;;
17892;SDS011;9072;51.918;4.380;2023-09-30T02:05:03;29.47;;;19.77;;
17892;SDS011;9072;51.918;4.380;2023-09-30T02:07:33;24.60;;;19.17;;
17892;SDS011;9072;51.918;4.380;2023-09-30T02:10:00;28.63;;;20.33;;
17892;SDS011;9072;51.918;4.380;2023-09-30T02:12:35;31.30;;;21.30;;
17892;SDS011;9072;51.918;4.380;2023-09-30T02:15:05;30.50;;;21.57;;
17892;SDS011;9072;51.918;4.380;2023-09-30T02:17:33;28.17;;;20.90;;
17892;SDS011;9072;51.918;4.380;2023-09-30T02:20:01;29.70;;;22.07;;
17892;SDS011;9072;51.918;4.380;2023-09-30T02:22:32;35.27;;;23.80;;
17892;SDS011;9072;51.918;4.380;2023-09-30T02:25:02;34.60;;;24.27;;
17892;SDS011;9072;51.918;4.380;2023-09-30T02:27:32;32.60;;;24.07;;
17892;SDS011;9072;51.918;4.380;2023-09-30T02:30:03;29.63;;;23.70;;
17892;SDS011;9072;51.918;4.380;2023-09-30T02:32:31;32.13;;;24.07;;
17892;SDS011;9072;51.918;4.380;2023-09-30T02:34:59;31.60;;;23.43;;
17892;SDS011;9072;51.918;4.380;2023-09-30T02:37:26;31.47;;;24.33;;
17892;SDS011;9072;51.918;4.380;2023-09-30T02:39:54;33.27;;;25.50;;
17892;SDS011;9072;51.918;4.380;2023-09-30T02:42:23;42.37;;;25.77;;
17892;SDS011;9072;51.918;4.380;2023-09-30T02:44:50;33.50;;;25.50;;
17892;SDS011;9072;51.918;4.380;2023-09-30T02:47:19;34.73;;;25.37;;
17892;SDS011;9072;51.918;4.380;2023-09-30T02:49:48;31.23;;;25.60;;
17892;SDS011;9072;51.918;4.380;2023-09-30T02:52:17;38.67;;;26.50;;
17892;SDS011;9072;51.918;4.380;2023-09-30T02:54:46;36.63;;;27.30;;
17892;SDS011;9072;51.918;4.380;2023-09-30T02:57:14;40.43;;;27.20;;
17892;SDS011;9072;51.918;4.380;2023-09-30T02:59:42;42.30;;;28.27;;
17892;SDS011;9072;51.918;4.380;2023-09-30T03:02:09;38.23;;;28.43;;
17892;SDS011;9072;51.918;4.380;2023-09-30T03:04:39;37.23;;;29.43;;
17892;SDS011;9072;51.918;4.380;2023-09-30T03:07:07;41.10;;;29.23;;
17892;SDS011;9072;51.918;4.380;2023-09-30T03:09:35;41.70;;;29.50;;
17892;SDS011;9072;51.918;4.380;2023-09-30T03:12:02;42.40;;;30.07;;
17892;SDS011;9072;51.918;4.380;2023-09-30T03:14:31;36.20;;;28.07;;
17892;SDS011;9072;51.918;4.380;2023-09-30T03:16:59;36.00;;;28.83;;
17892;SDS011;9072;51.918;4.380;2023-09-30T03:19:28;35.50;;;27.80;;
17892;SDS011;9072;51.918;4.380;2023-09-30T03:21:57;42.20;;;29.53;;
17892;SDS011;9072;51.918;4.380;2023-09-30T03:24:25;44.13;;;30.83;;
17892;SDS011;9072;51.918;4.380;2023-09-30T03:26:53;32.47;;;27.83;;
17892;SDS011;9072;51.918;4.380;2023-09-30T03:29:20;38.67;;;29.70;;
17892;SDS011;9072;51.918;4.380;2023-09-30T03:31:47;41.33;;;31.17;;
17892;SDS011;9072;51.918;4.380;2023-09-30T03:34:15;42.00;;;31.07;;
17892;SDS011;9072;51.918;4.380;2023-09-30T03:36:42;48.90;;;33.90;;
17892;SDS011;9072;51.918;4.380;2023-09-30T03:39:12;43.10;;;33.93;;
17892;SDS011;9072;51.918;4.380;2023-09-30T03:41:40;43.67;;;32.37;;
17892;SDS011;9072;51.918;4.380;2023-09-30T03:44:11;42.17;;;33.97;;
17892;SDS011;9072;51.918;4.380;2023-09-30T03:46:39;40.57;;;32.23;;
17892;SDS011;9072;51.918;4.380;2023-09-30T03:49:09;44.07;;;33.43;;
17892;SDS011;9072;51.918;4.380;2023-09-30T03:51:37;41.37;;;33.10;;
17892;SDS011;9072;51.918;4.380;2023-09-30T03:54:04;45.33;;;35.37;;
17892;SDS011;9072;51.918;4.380;2023-09-30T03:56:35;47.73;;;33.70;;
17892;SDS011;9072;51.918;4.380;2023-09-30T03:59:06;46.00;;;34.90;;
17892;SDS011;9072;51.918;4.380;2023-09-30T04:01:34;47.80;;;32.77;;
17892;SDS011;9072;51.918;4.380;2023-09-30T04:04:05;46.50;;;34.30;;
17892;SDS011;9072;51.918;4.380;2023-09-30T04:06:35;43.63;;;33.80;;
17892;SDS011;9072;51.918;4.380;2023-09-30T04:09:05;43.40;;;33.67;;
17892;SDS011;9072;51.918;4.380;2023-09-30T04:11:37;43.77;;;32.87;;
17892;SDS011;9072;51.918;4.380;2023-09-30T04:14:07;48.03;;;35.20;;
17892;SDS011;9072;51.918;4.380;2023-09-30T04:16:36;51.43;;;35.83;;
17892;SDS011;9072;51.918;4.380;2023-09-30T04:19:03;47.63;;;35.47;;
17892;SDS011;9072;51.918;4.380;2023-09-30T04:21:32;49.30;;;35.50;;
17892;SDS011;9072;51.918;4.380;2023-09-30T04:24:00;53.00;;;36.83;;
17892;SDS011;9072;51.918;4.380;2023-09-30T04:26:30;51.17;;;36.67;;
17892;SDS011;9072;51.918;4.380;2023-09-30T04:28:59;45.20;;;34.47;;
17892;SDS011;9072;51.918;4.380;2023-09-30T04:31:36;48.97;;;34.83;;
17892;SDS011;9072;51.918;4.380;2023-09-30T04:34:07;54.73;;;38.50;;
17892;SDS011;9072;51.918;4.380;2023-09-30T04:36:34;49.67;;;37.33;;
17892;SDS011;9072;51.918;4.380;2023-09-30T04:39:02;55.13;;;37.70;;
17892;SDS011;9072;51.918;4.380;2023-09-30T04:41:30;51.67;;;37.73;;
17892;SDS011;9072;51.918;4.380;2023-09-30T04:44:00;54.37;;;37.93;;
17892;SDS011;9072;51.918;4.380;2023-09-30T04:46:29;55.77;;;39.07;;
17892;SDS011;9072;51.918;4.380;2023-09-30T04:48:56;53.40;;;36.33;;
17892;SDS011;9072;51.918;4.380;2023-09-30T04:51:24;50.87;;;36.77;;
17892;SDS011;9072;51.918;4.380;2023-09-30T04:53:53;55.67;;;37.20;;
17892;SDS011;9072;51.918;4.380;2023-09-30T04:56:22;48.40;;;36.13;;
17892;SDS011;9072;51.918;4.380;2023-09-30T04:58:50;44.40;;;35.37;;
17892;SDS011;9072;51.918;4.380;2023-09-30T05:01:20;48.83;;;35.40;;
17892;SDS011;9072;51.918;4.380;2023-09-30T05:03:48;55.07;;;38.73;;
17892;SDS011;9072;51.918;4.380;2023-09-30T05:06:19;47.33;;;35.40;;
17892;SDS011;9072;51.918;4.380;2023-09-30T05:08:46;61.40;;;40.37;;
17892;SDS011;9072;51.918;4.380;2023-09-30T05:11:14;55.87;;;38.30;;
17892;SDS011;9072;51.918;4.380;2023-09-30T05:13:43;49.97;;;37.13;;
17892;SDS011;9072;51.918;4.380;2023-09-30T05:16:11;49.03;;;36.87;;
17892;SDS011;9072;51.918;4.380;2023-09-30T05:18:41;49.73;;;35.07;;
17892;SDS011;9072;51.918;4.380;2023-09-30T05:21:08;49.50;;;36.70;;
17892;SDS011;9072;51.918;4.380;2023-09-30T05:23:36;54.07;;;37.77;;
17892;SDS011;9072;51.918;4.380;2023-09-30T05:26:04;54.53;;;36.13;;
17892;SDS011;9072;51.918;4.380;2023-09-30T05:28:32;59.90;;;39.07;;
17892;SDS011;9072;51.918;4.380;2023-09-30T05:31:02;50.73;;;36.87;;
17892;SDS011;9072;51.918;4.380;2023-09-30T05:33:29;53.20;;;35.60;;
17892;SDS011;9072;51.918;4.380;2023-09-30T05:35:59;54.57;;;36.43;;
17892;SDS011;9072;51.918;4.380;2023-09-30T05:38:28;58.17;;;36.27;;
17892;SDS011;9072;51.918;4.380;2023-09-30T05:40:56;55.93;;;36.73;;
17892;SDS011;9072;51.918;4.380;2023-09-30T05:43:24;58.03;;;36.40;;
17892;SDS011;9072;51.918;4.380;2023-09-30T05:45:52;56.43;;;38.03;;
17892;SDS011;9072;51.918;4.380;2023-09-30T05:48:20;53.40;;;34.57;;
17892;SDS011;9072;51.918;4.380;2023-09-30T05:50:47;53.37;;;37.03;;
17892;SDS011;9072;51.918;4.380;2023-09-30T05:53:18;51.77;;;35.07;;
17892;SDS011;9072;51.918;4.380;2023-09-30T05:55:46;49.10;;;34.43;;
17892;SDS011;9072;51.918;4.380;2023-09-30T05:58:14;56.93;;;37.20;;
17892;SDS011;9072;51.918;4.380;2023-09-30T06:00:41;62.13;;;38.20;;
17892;SDS011;9072;51.918;4.380;2023-09-30T06:03:09;59.90;;;39.47;;
17892;SDS011;9072;51.918;4.380;2023-09-30T06:05:39;55.77;;;36.83;;
17892;SDS011;9072;51.918;4.380;2023-09-30T06:08:07;57.07;;;39.10;;
17892;SDS011;9072;51.918;4.380;2023-09-30T06:10:42;60.07;;;38.07;;
17892;SDS011;9072;51.918;4.380;2023-09-30T06:13:09;51.43;;;37.40;;
17892;SDS011;9072;51.918;4.380;2023-09-30T06:15:37;60.77;;;37.93;;
17892;SDS011;9072;51.918;4.380;2023-09-30T06:18:05;65.30;;;40.00;;
17892;SDS011;9072;51.918;4.380;2023-09-30T06:20:38;53.03;;;37.63;;
17892;SDS011;9072;51.918;4.380;2023-09-30T06:23:06;61.40;;;38.23;;
17892;SDS011;9072;51.918;4.380;2023-09-30T06:25:35;62.97;;;38.03;;
17892;SDS011;9072;51.918;4.380;2023-09-30T06:28:04;60.53;;;38.67;;
17892;SDS011;9072;51.918;4.380;2023-09-30T06:30:34;55.77;;;37.73;;
17892;SDS011;9072;51.918;4.380;2023-09-30T06:33:02;56.63;;;36.97;;
17892;SDS011;9072;51.918;4.380;2023-09-30T06:35:31;52.00;;;37.00;;
17892;SDS011;9072;51.918;4.380;2023-09-30T06:38:02;56.23;;;36.73;;
17892;SDS011;9072;51.918;4.380;2023-09-30T06:40:31;53.50;;;36.23;;
17892;SDS011;9072;51.918;4.380;2023-09-30T06:42:59;51.63;;;35.27;;
17892;SDS011;9072;51.918;4.380;2023-09-30T06:45:27;60.80;;;36.60;;
17892;SDS011;9072;51.918;4.380;2023-09-30T06:47:54;54.60;;;37.90;;
17892;SDS011;9072;51.918;4.380;2023-09-30T06:50:22;48.80;;;35.00;;
17892;SDS011;9072;51.918;4.380;2023-09-30T06:52:49;50.43;;;37.07;;
17892;SDS011;9072;51.918;4.380;2023-09-30T06:55:17;56.13;;;36.23;;
17892;SDS011;9072;51.918;4.380;2023-09-30T06:57:44;47.00;;;35.17;;
17892;SDS011;9072;51.918;4.380;2023-09-30T07:00:12;53.07;;;34.43;;
17892;SDS011;9072;51.918;4.380;2023-09-30T07:02:43;49.93;;;35.40;;
17892;SDS011;9072;51.918;4.380;2023-09-30T07:05:12;48.70;;;33.87;;
17892;SDS011;9072;51.918;4.380;2023-09-30T07:07:41;47.50;;;32.57;;
17892;SDS011;9072;51.918;4.380;2023-09-30T07:10:09;54.57;;;32.50;;
17892;SDS011;9072;51.918;4.380;2023-09-30T07:12:36;48.30;;;34.07;;
17892;SDS011;9072;51.918;4.380;2023-09-30T07:15:04;49.93;;;31.57;;
17892;SDS011;9072;51.918;4.380;2023-09-30T07:17:32;48.03;;;31.90;;
17892;SDS011;9072;51.918;4.380;2023-09-30T07:20:02;47.20;;;32.77;;
17892;SDS011;9072;51.918;4.380;2023-09-30T07:22:30;41.90;;;30.67;;
17892;SDS011;9072;51.918;4.380;2023-09-30T07:25:00;48.50;;;31.83;;
17892;SDS011;9072;51.918;4.380;2023-09-30T07:27:27;39.97;;;31.27;;
17892;SDS011;9072;51.918;4.380;2023-09-30T07:29:58;45.33;;;32.50;;
17892;SDS011;9072;51.918;4.380;2023-09-30T07:32:25;48.10;;;31.07;;
17892;SDS011;9072;51.918;4.380;2023-09-30T07:34:54;43.03;;;32.60;;
17892;SDS011;9072;51.918;4.380;2023-09-30T07:37:26;46.47;;;32.23;;
17892;SDS011;9072;51.918;4.380;2023-09-30T07:39:53;48.17;;;31.33;;
17892;SDS011;9072;51.918;4.380;2023-09-30T07:42:20;45.60;;;32.00;;
17892;SDS011;9072;51.918;4.380;2023-09-30T07:44:48;49.87;;;30.97;;
17892;SDS011;9072;51.918;4.380;2023-09-30T07:47:15;45.10;;;31.33;;
17892;SDS011;9072;51.918;4.380;2023-09-30T07:49:43;43.73;;;31.87;;
17892;SDS011;9072;51.918;4.380;2023-09-30T07:52:10;38.87;;;30.13;;
17892;SDS011;9072;51.918;4.380;2023-09-30T07:54:38;40.10;;;29.63;;
17892;SDS011;9072;51.918;4.380;2023-09-30T07:57:06;43.70;;;30.30;;
17892;SDS011;9072;51.918;4.380;2023-09-30T07:59:33;39.63;;;29.07;;
17892;SDS011;9072;51.918;4.380;2023-09-30T08:02:00;36.57;;;28.63;;
17892;SDS011;9072;51.918;4.380;2023-09-30T08:04:30;38.93;;;27.90;;
17892;SDS011;9072;51.918;4.380;2023-09-30T08:06:57;40.33;;;29.80;;
17892;SDS011;9072;51.918;4.380;2023-09-30T08:09:24;43.00;;;30.50;;
17892;SDS011;9072;51.918;4.380;2023-09-30T08:11:56;42.37;;;31.30;;
17892;SDS011;9072;51.918;4.380;2023-09-30T08:14:23;41.07;;;31.93;;
17892;SDS011;9072;51.918;4.380;2023-09-30T08:16:56;46.60;;;33.30;;
17892;SDS011;9072;51.918;4.380;2023-09-30T08:19:23;49.23;;;33.53;;
17892;SDS011;9072;51.918;4.380;2023-09-30T08:21:51;44.77;;;33.27;;
17892;SDS011;9072;51.918;4.380;2023-09-30T08:24:18;42.87;;;30.47;;
17892;SDS011;9072;51.918;4.380;2023-09-30T08:26:45;36.67;;;30.27;;
17892;SDS011;9072;51.918;4.380;2023-09-30T08:29:14;45.20;;;31.37;;
17892;SDS011;9072;51.918;4.380;2023-09-30T08:31:41;45.03;;;32.60;;
17892;SDS011;9072;51.918;4.380;2023-09-30T08:34:09;41.47;;;31.10;;
17892;SDS011;9072;51.918;4.380;2023-09-30T08:36:37;43.73;;;33.43;;
17892;SDS011;9072;51.918;4.380;2023-09-30T08:39:04;45.03;;;33.60;;
17892;SDS011;9072;51.918;4.380;2023-09-30T08:41:31;40.50;;;31.33;;
17892;SDS011;9072;51.918;4.380;2023-09-30T08:44:00;42.17;;;31.03;;
17892;SDS011;9072;51.918;4.380;2023-09-30T08:46:31;41.77;;;33.17;;
17892;SDS011;9072;51.918;4.380;2023-09-30T08:49:00;40.27;;;33.10;;
17892;SDS011;9072;51.918;4.380;2023-09-30T08:51:28;43.23;;;33.40;;
17892;SDS011;9072;51.918;4.380;2023-09-30T08:53:57;39.67;;;31.50;;
17892;SDS011;9072;51.918;4.380;2023-09-30T08:56:26;34.67;;;29.30;;
17892;SDS011;9072;51.918;4.380;2023-09-30T08:58:56;32.70;;;27.03;;
17892;SDS011;9072;51.918;4.380;2023-09-30T09:01:25;32.00;;;27.90;;
17892;SDS011;9072;51.918;4.380;2023-09-30T09:03:54;31.57;;;26.23;;
17892;SDS011;9072;51.918;4.380;2023-09-30T09:06:23;29.83;;;26.63;;
17892;SDS011;9072;51.918;4.380;2023-09-30T09:08:50;35.10;;;26.77;;
17892;SDS011;9072;51.918;4.380;2023-09-30T09:11:18;31.37;;;27.57;;
17892;SDS011;9072;51.918;4.380;2023-09-30T09:13:46;33.00;;;26.90;;
17892;SDS011;9072;51.918;4.380;2023-09-30T09:16:15;33.63;;;28.23;;
17892;SDS011;9072;51.918;4.380;2023-09-30T09:18:44;35.80;;;29.47;;
17892;SDS011;9072;51.918;4.380;2023-09-30T09:21:14;31.50;;;25.83;;
17892;SDS011;9072;51.918;4.380;2023-09-30T09:23:43;31.87;;;25.27;;
17892;SDS011;9072;51.918;4.380;2023-09-30T09:26:12;31.40;;;27.20;;
17892;SDS011;9072;51.918;4.380;2023-09-30T09:28:49;33.03;;;26.37;;
17892;SDS011;9072;51.918;4.380;2023-09-30T09:31:20;28.30;;;24.07;;
17892;SDS011;9072;51.918;4.380;2023-09-30T09:33:50;27.63;;;24.17;;
17892;SDS011;9072;51.918;4.380;2023-09-30T09:36:20;27.33;;;24.47;;
17892;SDS011;9072;51.918;4.380;2023-09-30T09:38:48;29.47;;;24.83;;
17892;SDS011;9072;51.918;4.380;2023-09-30T09:41:18;28.60;;;24.55;;
17892;SDS011;9072;51.918;4.380;2023-09-30T09:43:48;31.00;;;25.13;;
17892;SDS011;9072;51.918;4.380;2023-09-30T09:46:16;31.65;;;26.52;;
17892;SDS011;9072;51.918;4.380;2023-09-30T09:48:46;29.60;;;26.42;;
17892;SDS011;9072;51.918;4.380;2023-09-30T09:51:13;27.45;;;24.55;;
17892;SDS011;9072;51.918;4.380;2023-09-30T09:53:43;27.58;;;24.67;;
17892;SDS011;9072;51.918;4.380;2023-09-30T09:56:10;27.48;;;24.70;;
17892;SDS011;9072;51.918;4.380;2023-09-30T09:58:39;26.23;;;23.42;;
17892;SDS011;9072;51.918;4.380;2023-09-30T10:01:10;24.85;;;22.25;;
17892;SDS011;9072;51.918;4.380;2023-09-30T10:03:38;23.75;;;21.17;;
17892;SDS011;9072;51.918;4.380;2023-09-30T10:06:05;24.42;;;21.83;;
17892;SDS011;9072;51.918;4.380;2023-09-30T10:08:36;22.50;;;20.13;;
17892;SDS011;9072;51.918;4.380;2023-09-30T10:11:08;25.63;;;21.10;;
17892;SDS011;9072;51.918;4.380;2023-09-30T10:13:52;24.38;;;20.08;;
17892;SDS011;9072;51.918;4.380;2023-09-30T10:19:17;20.00;;;17.25;;
17892;SDS011;9072;51.918;4.380;2023-09-30T10:24:50;19.90;;;15.43;;
17892;SDS011;9072;51.918;4.380;2023-09-30T10:30:13;19.73;;;16.08;;
17892;SDS011;9072;51.918;4.380;2023-09-30T10:35:52;25.60;;;17.30;;
17892;SDS011;9072;51.918;4.380;2023-09-30T10:38:38;18.38;;;16.30;;
17892;SDS011;9072;51.918;4.380;2023-09-30T10:41:48;21.08;;;15.43;;
17892;SDS011;9072;51.918;4.380;2023-09-30T10:44:35;20.30;;;15.23;;
17892;SDS011;9072;51.918;4.380;2023-09-30T10:47:38;23.17;;;14.32;;
17892;SDS011;9072;51.918;4.380;2023-09-30T10:53:20;17.85;;;11.00;;
17892;SDS011;9072;51.918;4.380;2023-09-30T10:55:53;19.10;;;11.55;;
17892;SDS011;9072;51.918;4.380;2023-09-30T10:58:39;20.00;;;13.18;;
17892;SDS011;9072;51.918;4.380;2023-09-30T11:01:15;17.83;;;12.30;;
17892;SDS011;9072;51.918;4.380;2023-09-30T11:03:47;18.10;;;12.00;;
17892;SDS011;9072;51.918;4.380;2023-09-30T11:06:17;15.77;;;11.27;;
17892;SDS011;9072;51.918;4.380;2023-09-30T11:08:53;17.92;;;11.52;;
17892;SDS011;9072;51.918;4.380;2023-09-30T11:11:36;16.65;;;11.90;;
17892;SDS011;9072;51.918;4.380;2023-09-30T11:14:23;21.75;;;13.13;;
17892;SDS011;9072;51.918;4.380;2023-09-30T11:16:51;19.63;;;12.70;;
17892;SDS011;9072;51.918;4.380;2023-09-30T11:19:27;17.73;;;11.40;;
17892;SDS011;9072;51.918;4.380;2023-09-30T11:22:06;16.10;;;10.57;;
17892;SDS011;9072;51.918;4.380;2023-09-30T11:24:41;18.30;;;11.27;;
17892;SDS011;9072;51.918;4.380;2023-09-30T11:27:11;17.92;;;11.10;;
17892;SDS011;9072;51.918;4.380;2023-09-30T11:29:50;16.95;;;9.38;;
17892;SDS011;9072;51.918;4.380;2023-09-30T11:32:23;21.05;;;11.38;;
17892;SDS011;9072;51.918;4.380;2023-09-30T11:35:00;15.02;;;9.15;;
17892;SDS011;9072;51.918;4.380;2023-09-30T11:37:32;14.50;;;8.90;;
17892;SDS011;9072;51.918;4.380;2023-09-30T11:40:08;16.00;;;10.23;;
17892;SDS011;9072;51.918;4.380;2023-09-30T11:42:37;16.83;;;9.45;;
17892;SDS011;9072;51.918;4.380;2023-09-30T11:47:49;14.95;;;8.00;;
17892;SDS011;9072;51.918;4.380;2023-09-30T11:50:24;18.33;;;8.40;;
17892;SDS011;9072;51.918;4.380;2023-09-30T11:52:56;14.75;;;7.93;;
17892;SDS011;9072;51.918;4.380;2023-09-30T11:55:26;13.05;;;7.18;;
17892;SDS011;9072;51.918;4.380;2023-09-30T11:57:56;14.77;;;6.05;;
17892;SDS011;9072;51.918;4.380;2023-09-30T12:00:24;13.75;;;6.22;;
17892;SDS011;9072;51.918;4.380;2023-09-30T12:02:55;12.57;;;5.80;;
17892;SDS011;9072;51.918;4.380;2023-09-30T12:05:27;15.65;;;6.15;;
17892;SDS011;9072;51.918;4.380;2023-09-30T12:07:56;14.80;;;5.85;;
17892;SDS011;9072;51.918;4.380;2023-09-30T12:10:30;14.57;;;5.78;;
17892;SDS011;9072;51.918;4.380;2023-09-30T12:13:00;13.48;;;5.60;;
17892;SDS011;9072;51.918;4.380;2023-09-30T12:15:27;15.00;;;5.05;;
17892;SDS011;9072;51.918;4.380;2023-09-30T12:17:58;13.45;;;5.05;;
17892;SDS011;9072;51.918;4.380;2023-09-30T12:20:28;11.70;;;4.20;;
17892;SDS011;9072;51.918;4.380;2023-09-30T12:23:03;11.50;;;4.22;;
17892;SDS011;9072;51.918;4.380;2023-09-30T12:25:32;13.40;;;4.82;;
17892;SDS011;9072;51.918;4.380;2023-09-30T12:28:02;16.92;;;4.72;;
17892;SDS011;9072;51.918;4.380;2023-09-30T12:30:30;15.27;;;4.75;;
17892;SDS011;9072;51.918;4.380;2023-09-30T12:32:58;11.85;;;4.32;;
17892;SDS011;9072;51.918;4.380;2023-09-30T12:35:29;13.40;;;5.60;;
17892;SDS011;9072;51.918;4.380;2023-09-30T12:37:58;12.65;;;5.00;;
17892;SDS011;9072;51.918;4.380;2023-09-30T12:40:47;10.93;;;4.32;;
17892;SDS011;9072;51.918;4.380;2023-09-30T12:43:17;15.47;;;5.40;;
17892;SDS011;9072;51.918;4.380;2023-09-30T12:45:50;12.35;;;4.90;;
17892;SDS011;9072;51.918;4.380;2023-09-30T12:48:25;13.77;;;4.70;;
17892;SDS011;9072;51.918;4.380;2023-09-30T12:50:58;16.60;;;5.32;;
17892;SDS011;9072;51.918;4.380;2023-09-30T12:53:29;11.37;;;5.07;;
17892;SDS011;9072;51.918;4.380;2023-09-30T12:55:57;15.93;;;5.00;;
17892;SDS011;9072;51.918;4.380;2023-09-30T12:58:25;11.35;;;4.65;;
17892;SDS011;9072;51.918;4.380;2023-09-30T13:00:54;13.23;;;4.47;;
17892;SDS011;9072;51.918;4.380;2023-09-30T13:03:23;11.60;;;4.10;;
17892;SDS011;9072;51.918;4.380;2023-09-30T13:05:50;12.98;;;4.28;;
17892;SDS011;9072;51.918;4.380;2023-09-30T13:08:20;11.23;;;4.63;;
17892;SDS011;9072;51.918;4.380;2023-09-30T13:10:49;12.40;;;4.00;;
17892;SDS011;9072;51.918;4.380;2023-09-30T13:13:18;10.80;;;3.95;;
17892;SDS011;9072;51.918;4.380;2023-09-30T13:15:45;9.80;;;3.73;;
17892;SDS011;9072;51.918;4.380;2023-09-30T13:18:14;9.70;;;4.27;;
17892;SDS011;9072;51.918;4.380;2023-09-30T13:20:49;10.50;;;3.72;;
17892;SDS011;9072;51.918;4.380;2023-09-30T13:23:19;11.40;;;3.65;;
17892;SDS011;9072;51.918;4.380;2023-09-30T13:25:52;10.55;;;3.85;;
17892;SDS011;9072;51.918;4.380;2023-09-30T13:29:12;11.00;;;3.70;;
17892;SDS011;9072;51.918;4.380;2023-09-30T13:31:43;8.98;;;3.80;;
17892;SDS011;9072;51.918;4.380;2023-09-30T13:34:11;12.73;;;3.70;;
17892;SDS011;9072;51.918;4.380;2023-09-30T13:36:48;13.00;;;4.07;;
17892;SDS011;9072;51.918;4.380;2023-09-30T13:39:30;11.70;;;3.60;;
17892;SDS011;9072;51.918;4.380;2023-09-30T13:41:59;9.23;;;3.30;;
17892;SDS011;9072;51.918;4.380;2023-09-30T13:44:27;10.68;;;3.80;;
17892;SDS011;9072;51.918;4.380;2023-09-30T13:46:55;10.47;;;3.60;;
17892;SDS011;9072;51.918;4.380;2023-09-30T13:49:23;10.57;;;3.87;;
17892;SDS011;9072;51.918;4.380;2023-09-30T13:51:51;8.93;;;3.60;;
17892;SDS011;9072;51.918;4.380;2023-09-30T13:54:18;13.77;;;4.13;;
17892;SDS011;9072;51.918;4.380;2023-09-30T13:56:48;11.07;;;3.93;;
17892;SDS011;9072;51.918;4.380;2023-09-30T13:59:15;9.80;;;3.60;;
17892;SDS011;9072;51.918;4.380;2023-09-30T14:01:43;9.67;;;3.53;;
17892;SDS011;9072;51.918;4.380;2023-09-30T14:04:10;14.33;;;4.10;;
17892;SDS011;9072;51.918;4.380;2023-09-30T14:06:38;11.23;;;3.53;;
17892;SDS011;9072;51.918;4.380;2023-09-30T14:09:07;12.07;;;3.53;;
17892;SDS011;9072;51.918;4.380;2023-09-30T14:11:40;9.50;;;3.60;;
17892;SDS011;9072;51.918;4.380;2023-09-30T14:14:12;10.27;;;3.47;;
17892;SDS011;9072;51.918;4.380;2023-09-30T14:16:39;8.33;;;3.63;;
17892;SDS011;9072;51.918;4.380;2023-09-30T14:19:07;14.40;;;3.57;;
17892;SDS011;9072;51.918;4.380;2023-09-30T14:21:34;11.80;;;3.97;;
17892;SDS011;9072;51.918;4.380;2023-09-30T14:24:02;8.90;;;3.53;;
17892;SDS011;9072;51.918;4.380;2023-09-30T14:26:30;9.83;;;3.43;;
17892;SDS011;9072;51.918;4.380;2023-09-30T14:28:57;10.50;;;3.93;;
17892;SDS011;9072;51.918;4.380;2023-09-30T14:31:25;10.63;;;3.83;;
17892;SDS011;9072;51.918;4.380;2023-09-30T14:33:56;14.00;;;3.90;;
17892;SDS011;9072;51.918;4.380;2023-09-30T14:36:29;10.47;;;3.37;;
17892;SDS011;9072;51.918;4.380;2023-09-30T14:38:58;12.23;;;4.03;;
17892;SDS011;9072;51.918;4.380;2023-09-30T14:41:27;12.43;;;3.90;;
17892;SDS011;9072;51.918;4.380;2023-09-30T14:43:54;12.07;;;4.33;;
17892;SDS011;9072;51.918;4.380;2023-09-30T14:46:26;9.77;;;3.67;;
17892;SDS011;9072;51.918;4.380;2023-09-30T14:48:54;7.60;;;3.10;;
17892;SDS011;9072;51.918;4.380;2023-09-30T14:51:22;11.23;;;3.80;;
17892;SDS011;9072;51.918;4.380;2023-09-30T14:53:59;9.83;;;3.23;;
17892;SDS011;9072;51.918;4.380;2023-09-30T14:56:28;12.30;;;3.50;;
17892;SDS011;9072;51.918;4.380;2023-09-30T14:58:55;11.73;;;3.80;;
17892;SDS011;9072;51.918;4.380;2023-09-30T15:01:22;9.93;;;3.83;;
17892;SDS011;9072;51.918;4.380;2023-09-30T15:03:52;10.33;;;3.60;;
17892;SDS011;9072;51.918;4.380;2023-09-30T15:06:22;12.10;;;4.27;;
17892;SDS011;9072;51.918;4.380;2023-09-30T15:08:53;10.63;;;3.63;;
17892;SDS011;9072;51.918;4.380;2023-09-30T15:11:21;10.97;;;3.57;;